Aviation Digital Data Service (ADDS)

Output produced by METARs form (2348 UTC 18 December 2014)
found at http://aviationweather.gov/adds/metars/
 
KAUG 182324Z 1900/1924 30008KT P6SM OVC040 
     FM190800 32007KT P6SM SCT050 BKN100 
     FM191300 33009KT P6SM SCT060 BKN100